sensor_id;sensor_type;location;lat;lon;timestamp;temperature;humidity
53073;DHT22;38955;48.916;2.336;2024-02-26T00:01:54;10.00;99.90
53073;DHT22;38955;48.916;2.336;2024-02-26T00:03:57;10.00;99.90
53073;DHT22;38955;48.916;2.336;2024-02-26T00:06:01;10.10;99.90
53073;DHT22;38955;48.916;2.336;2024-02-26T00:08:05;10.10;99.90
53073;DHT22;38955;48.916;2.336;2024-02-26T00:10:08;10.10;99.90
53073;DHT22;38955;48.916;2.336;2024-02-26T00:12:10;10.10;99.90
53073;DHT22;38955;48.916;2.336;2024-02-26T00:14:12;10.20;99.90
53073;DHT22;38955;48.916;2.336;2024-02-26T00:16:14;10.20;99.90
53073;DHT22;38955;48.916;2.336;2024-02-26T00:18:17;10.20;99.90
53073;DHT22;38955;48.916;2.336;2024-02-26T00:20:21;10.10;99.90
53073;DHT22;38955;48.916;2.336;2024-02-26T00:22:29;10.10;99.90
53073;DHT22;38955;48.916;2.336;2024-02-26T00:24:31;10.10;99.90
53073;DHT22;38955;48.916;2.336;2024-02-26T00:26:33;10.10;99.90
53073;DHT22;38955;48.916;2.336;2024-02-26T00:28:36;10.10;99.90
53073;DHT22;38955;48.916;2.336;2024-02-26T00:30:38;10.10;99.90
53073;DHT22;38955;48.916;2.336;2024-02-26T00:32:40;10.10;99.90
53073;DHT22;38955;48.916;2.336;2024-02-26T00:34:42;10.10;99.90
53073;DHT22;38955;48.916;2.336;2024-02-26T00:36:46;10.10;99.90
53073;DHT22;38955;48.916;2.336;2024-02-26T00:38:48;10.10;99.90
53073;DHT22;38955;48.916;2.336;2024-02-26T00:40:53;10.10;99.90
53073;DHT22;38955;48.916;2.336;2024-02-26T00:42:55;10.10;99.90
53073;DHT22;38955;48.916;2.336;2024-02-26T00:44:57;10.20;99.90
53073;DHT22;38955;48.916;2.336;2024-02-26T00:46:59;10.20;99.90
53073;DHT22;38955;48.916;2.336;2024-02-26T00:49:01;10.20;99.90
53073;DHT22;38955;48.916;2.336;2024-02-26T00:51:04;10.30;99.90
53073;DHT22;38955;48.916;2.336;2024-02-26T00:53:11;10.30;99.90
53073;DHT22;38955;48.916;2.336;2024-02-26T00:55:13;10.30;99.90
53073;DHT22;38955;48.916;2.336;2024-02-26T00:57:15;10.30;99.90
53073;DHT22;38955;48.916;2.336;2024-02-26T00:59:17;10.30;99.90
53073;DHT22;38955;48.916;2.336;2024-02-26T01:01:19;10.30;99.90
53073;DHT22;38955;48.916;2.336;2024-02-26T01:03:22;10.40;99.90
53073;DHT22;38955;48.916;2.336;2024-02-26T01:05:24;10.40;99.90
53073;DHT22;38955;48.916;2.336;2024-02-26T01:07:26;10.50;99.90
53073;DHT22;38955;48.916;2.336;2024-02-26T01:09:30;10.50;99.90
53073;DHT22;38955;48.916;2.336;2024-02-26T01:11:32;10.50;99.90
53073;DHT22;38955;48.916;2.336;2024-02-26T01:13:35;10.50;99.90
53073;DHT22;38955;48.916;2.336;2024-02-26T01:15:37;10.50;99.90
53073;DHT22;38955;48.916;2.336;2024-02-26T01:17:39;10.50;99.90
53073;DHT22;38955;48.916;2.336;2024-02-26T01:19:41;10.60;99.90
53073;DHT22;38955;48.916;2.336;2024-02-26T01:21:43;10.60;99.90
53073;DHT22;38955;48.916;2.336;2024-02-26T01:23:45;10.60;99.90
53073;DHT22;38955;48.916;2.336;2024-02-26T01:25:49;10.60;99.90
53073;DHT22;38955;48.916;2.336;2024-02-26T01:27:53;10.60;99.90
53073;DHT22;38955;48.916;2.336;2024-02-26T01:29:57;10.50;99.90
53073;DHT22;38955;48.916;2.336;2024-02-26T01:31:59;10.50;99.90
53073;DHT22;38955;48.916;2.336;2024-02-26T01:34:01;10.50;99.90
53073;DHT22;38955;48.916;2.336;2024-02-26T01:36:04;10.50;99.90
53073;DHT22;38955;48.916;2.336;2024-02-26T01:38:06;10.50;99.90
53073;DHT22;38955;48.916;2.336;2024-02-26T01:40:09;10.60;99.90
53073;DHT22;38955;48.916;2.336;2024-02-26T01:42:13;10.70;99.90
53073;DHT22;38955;48.916;2.336;2024-02-26T01:44:15;10.70;99.90
53073;DHT22;38955;48.916;2.336;2024-02-26T01:46:18;10.60;99.90
53073;DHT22;38955;48.916;2.336;2024-02-26T01:48:20;10.60;99.90
53073;DHT22;38955;48.916;2.336;2024-02-26T01:50:23;10.60;99.90
53073;DHT22;38955;48.916;2.336;2024-02-26T01:52:26;10.70;99.90
53073;DHT22;38955;48.916;2.336;2024-02-26T01:54:29;10.60;99.90
53073;DHT22;38955;48.916;2.336;2024-02-26T01:56:32;10.60;99.90
53073;DHT22;38955;48.916;2.336;2024-02-26T01:58:37;10.70;99.90
53073;DHT22;38955;48.916;2.336;2024-02-26T02:00:39;10.70;99.90
53073;DHT22;38955;48.916;2.336;2024-02-26T02:02:41;10.70;99.90
53073;DHT22;38955;48.916;2.336;2024-02-26T02:04:44;10.70;99.90
53073;DHT22;38955;48.916;2.336;2024-02-26T02:06:46;10.70;99.90
53073;DHT22;38955;48.916;2.336;2024-02-26T02:08:48;10.60;99.90
53073;DHT22;38955;48.916;2.336;2024-02-26T02:10:51;10.60;99.90
53073;DHT22;38955;48.916;2.336;2024-02-26T02:12:53;10.70;99.90
53073;DHT22;38955;48.916;2.336;2024-02-26T02:14:57;10.70;99.90
53073;DHT22;38955;48.916;2.336;2024-02-26T02:16:59;10.70;99.90
53073;DHT22;38955;48.916;2.336;2024-02-26T02:19:01;10.70;99.90
53073;DHT22;38955;48.916;2.336;2024-02-26T02:21:08;10.70;99.90
53073;DHT22;38955;48.916;2.336;2024-02-26T02:23:10;10.70;99.90
53073;DHT22;38955;48.916;2.336;2024-02-26T02:25:13;10.70;99.90
53073;DHT22;38955;48.916;2.336;2024-02-26T02:27:15;10.70;99.90
53073;DHT22;38955;48.916;2.336;2024-02-26T02:29:18;10.70;99.90
53073;DHT22;38955;48.916;2.336;2024-02-26T02:31:20;10.70;99.90
53073;DHT22;38955;48.916;2.336;2024-02-26T02:33:22;10.80;99.90
53073;DHT22;38955;48.916;2.336;2024-02-26T02:35:25;10.80;99.90
53073;DHT22;38955;48.916;2.336;2024-02-26T02:37:28;10.80;99.90
53073;DHT22;38955;48.916;2.336;2024-02-26T02:39:30;10.70;99.90
53073;DHT22;38955;48.916;2.336;2024-02-26T02:41:32;10.70;99.90
53073;DHT22;38955;48.916;2.336;2024-02-26T02:43:34;10.70;99.90
53073;DHT22;38955;48.916;2.336;2024-02-26T02:45:36;10.70;99.90
53073;DHT22;38955;48.916;2.336;2024-02-26T02:47:38;10.70;99.90
53073;DHT22;38955;48.916;2.336;2024-02-26T02:49:41;10.70;99.90
53073;DHT22;38955;48.916;2.336;2024-02-26T02:51:43;10.80;99.90
53073;DHT22;38955;48.916;2.336;2024-02-26T02:53:46;10.80;99.90
53073;DHT22;38955;48.916;2.336;2024-02-26T02:55:48;10.70;99.90
53073;DHT22;38955;48.916;2.336;2024-02-26T02:57:51;10.70;99.90
53073;DHT22;38955;48.916;2.336;2024-02-26T02:59:53;10.80;99.90
53073;DHT22;38955;48.916;2.336;2024-02-26T03:01:55;10.80;99.90
53073;DHT22;38955;48.916;2.336;2024-02-26T03:03:58;10.70;99.90
53073;DHT22;38955;48.916;2.336;2024-02-26T03:06:00;10.70;99.90
53073;DHT22;38955;48.916;2.336;2024-02-26T03:08:03;10.70;99.90
53073;DHT22;38955;48.916;2.336;2024-02-26T03:10:07;10.70;99.90
53073;DHT22;38955;48.916;2.336;2024-02-26T03:12:09;10.70;99.90
53073;DHT22;38955;48.916;2.336;2024-02-26T03:14:11;10.70;99.90
53073;DHT22;38955;48.916;2.336;2024-02-26T03:16:13;10.70;99.90
53073;DHT22;38955;48.916;2.336;2024-02-26T03:18:15;10.70;99.90
53073;DHT22;38955;48.916;2.336;2024-02-26T03:20:18;10.70;99.90
53073;DHT22;38955;48.916;2.336;2024-02-26T03:22:21;10.70;99.90
53073;DHT22;38955;48.916;2.336;2024-02-26T03:24:23;10.70;99.90
53073;DHT22;38955;48.916;2.336;2024-02-26T03:26:27;10.70;99.90
53073;DHT22;38955;48.916;2.336;2024-02-26T03:28:29;10.70;99.90
53073;DHT22;38955;48.916;2.336;2024-02-26T03:30:32;10.70;99.90
53073;DHT22;38955;48.916;2.336;2024-02-26T03:32:34;10.70;99.90
53073;DHT22;38955;48.916;2.336;2024-02-26T03:34:36;10.70;99.90
53073;DHT22;38955;48.916;2.336;2024-02-26T03:36:41;10.70;99.90
53073;DHT22;38955;48.916;2.336;2024-02-26T03:38:44;10.70;99.90
53073;DHT22;38955;48.916;2.336;2024-02-26T03:40:46;10.60;99.90
53073;DHT22;38955;48.916;2.336;2024-02-26T03:42:49;10.70;99.90
53073;DHT22;38955;48.916;2.336;2024-02-26T03:44:52;10.80;99.90
53073;DHT22;38955;48.916;2.336;2024-02-26T03:46:54;10.80;99.90
53073;DHT22;38955;48.916;2.336;2024-02-26T03:48:56;10.70;99.90
53073;DHT22;38955;48.916;2.336;2024-02-26T03:50:58;10.70;99.90
53073;DHT22;38955;48.916;2.336;2024-02-26T03:53:00;10.80;99.90
53073;DHT22;38955;48.916;2.336;2024-02-26T03:55:03;10.80;99.90
53073;DHT22;38955;48.916;2.336;2024-02-26T03:57:05;10.80;99.90
53073;DHT22;38955;48.916;2.336;2024-02-26T03:59:08;10.80;99.90
53073;DHT22;38955;48.916;2.336;2024-02-26T04:01:10;10.90;99.90
53073;DHT22;38955;48.916;2.336;2024-02-26T04:03:13;10.80;99.90
53073;DHT22;38955;48.916;2.336;2024-02-26T04:05:15;10.80;99.90
53073;DHT22;38955;48.916;2.336;2024-02-26T04:07:17;10.70;99.90
53073;DHT22;38955;48.916;2.336;2024-02-26T04:09:20;10.70;99.90
53073;DHT22;38955;48.916;2.336;2024-02-26T04:11:22;10.70;99.90
53073;DHT22;38955;48.916;2.336;2024-02-26T04:13:25;10.70;99.90
53073;DHT22;38955;48.916;2.336;2024-02-26T04:15:29;10.80;99.90
53073;DHT22;38955;48.916;2.336;2024-02-26T04:17:32;10.80;99.90
53073;DHT22;38955;48.916;2.336;2024-02-26T04:19:34;10.90;99.90
53073;DHT22;38955;48.916;2.336;2024-02-26T04:21:36;10.90;99.90
53073;DHT22;38955;48.916;2.336;2024-02-26T04:23:38;10.80;99.90
53073;DHT22;38955;48.916;2.336;2024-02-26T04:25:40;10.90;99.90
53073;DHT22;38955;48.916;2.336;2024-02-26T04:27:42;10.90;99.90
53073;DHT22;38955;48.916;2.336;2024-02-26T04:29:44;10.80;99.90
53073;DHT22;38955;48.916;2.336;2024-02-26T04:31:48;10.80;99.90
53073;DHT22;38955;48.916;2.336;2024-02-26T04:33:50;10.80;99.90
53073;DHT22;38955;48.916;2.336;2024-02-26T04:35:52;10.80;99.90
53073;DHT22;38955;48.916;2.336;2024-02-26T04:37:55;10.80;99.90
53073;DHT22;38955;48.916;2.336;2024-02-26T04:39:58;10.80;99.90
53073;DHT22;38955;48.916;2.336;2024-02-26T04:42:01;10.80;99.90
53073;DHT22;38955;48.916;2.336;2024-02-26T04:44:05;10.80;99.90
53073;DHT22;38955;48.916;2.336;2024-02-26T04:46:08;10.80;99.90
53073;DHT22;38955;48.916;2.336;2024-02-26T04:48:12;10.70;99.90
53073;DHT22;38955;48.916;2.336;2024-02-26T04:50:14;10.70;99.90
53073;DHT22;38955;48.916;2.336;2024-02-26T04:52:16;10.70;99.90
53073;DHT22;38955;48.916;2.336;2024-02-26T04:54:18;10.70;99.90
53073;DHT22;38955;48.916;2.336;2024-02-26T04:56:21;10.70;99.90
53073;DHT22;38955;48.916;2.336;2024-02-26T04:58:23;10.70;99.90
53073;DHT22;38955;48.916;2.336;2024-02-26T05:00:25;10.60;99.90
53073;DHT22;38955;48.916;2.336;2024-02-26T05:02:27;10.70;99.90
53073;DHT22;38955;48.916;2.336;2024-02-26T05:04:33;10.70;99.90
53073;DHT22;38955;48.916;2.336;2024-02-26T05:06:36;10.70;99.90
53073;DHT22;38955;48.916;2.336;2024-02-26T05:08:39;10.70;99.90
53073;DHT22;38955;48.916;2.336;2024-02-26T05:10:41;10.60;99.90
53073;DHT22;38955;48.916;2.336;2024-02-26T05:12:45;10.70;99.90
53073;DHT22;38955;48.916;2.336;2024-02-26T05:14:47;10.60;99.90
53073;DHT22;38955;48.916;2.336;2024-02-26T05:16:49;10.70;99.90
53073;DHT22;38955;48.916;2.336;2024-02-26T05:18:51;10.50;99.90
53073;DHT22;38955;48.916;2.336;2024-02-26T05:20:55;10.60;99.90
53073;DHT22;38955;48.916;2.336;2024-02-26T05:22:58;10.60;99.90
53073;DHT22;38955;48.916;2.336;2024-02-26T05:25:00;10.70;99.90
53073;DHT22;38955;48.916;2.336;2024-02-26T05:27:03;10.70;99.90
53073;DHT22;38955;48.916;2.336;2024-02-26T05:29:05;10.70;99.90
53073;DHT22;38955;48.916;2.336;2024-02-26T05:31:07;10.60;99.90
53073;DHT22;38955;48.916;2.336;2024-02-26T05:33:09;10.60;99.90
53073;DHT22;38955;48.916;2.336;2024-02-26T05:35:13;10.50;99.90
53073;DHT22;38955;48.916;2.336;2024-02-26T05:37:18;10.40;99.90
53073;DHT22;38955;48.916;2.336;2024-02-26T05:39:20;10.40;99.90
53073;DHT22;38955;48.916;2.336;2024-02-26T05:41:22;10.50;99.90
53073;DHT22;38955;48.916;2.336;2024-02-26T05:43:28;10.60;99.90
53073;DHT22;38955;48.916;2.336;2024-02-26T05:45:30;10.60;99.90
53073;DHT22;38955;48.916;2.336;2024-02-26T05:47:33;10.60;99.90
53073;DHT22;38955;48.916;2.336;2024-02-26T05:49:35;10.70;99.90
53073;DHT22;38955;48.916;2.336;2024-02-26T05:51:37;10.60;99.90
53073;DHT22;38955;48.916;2.336;2024-02-26T05:53:41;10.60;99.90
53073;DHT22;38955;48.916;2.336;2024-02-26T05:55:43;10.70;99.90
53073;DHT22;38955;48.916;2.336;2024-02-26T05:57:45;10.80;99.90
53073;DHT22;38955;48.916;2.336;2024-02-26T05:59:47;10.80;99.90
53073;DHT22;38955;48.916;2.336;2024-02-26T06:01:49;10.90;99.90
53073;DHT22;38955;48.916;2.336;2024-02-26T06:03:51;10.80;99.90
53073;DHT22;38955;48.916;2.336;2024-02-26T06:05:53;10.80;99.90
53073;DHT22;38955;48.916;2.336;2024-02-26T06:07:56;10.90;99.90
53073;DHT22;38955;48.916;2.336;2024-02-26T06:09:59;10.90;99.90
53073;DHT22;38955;48.916;2.336;2024-02-26T06:12:01;10.90;99.90
53073;DHT22;38955;48.916;2.336;2024-02-26T06:14:03;10.90;99.90
53073;DHT22;38955;48.916;2.336;2024-02-26T06:16:07;10.90;99.90
53073;DHT22;38955;48.916;2.336;2024-02-26T06:18:09;10.90;99.90
53073;DHT22;38955;48.916;2.336;2024-02-26T06:20:12;11.00;99.90
53073;DHT22;38955;48.916;2.336;2024-02-26T06:22:15;10.90;99.90
53073;DHT22;38955;48.916;2.336;2024-02-26T06:24:17;10.80;99.90
53073;DHT22;38955;48.916;2.336;2024-02-26T06:26:21;10.90;99.90
53073;DHT22;38955;48.916;2.336;2024-02-26T06:28:23;10.90;99.90
53073;DHT22;38955;48.916;2.336;2024-02-26T06:30:25;10.90;99.90
53073;DHT22;38955;48.916;2.336;2024-02-26T06:32:27;10.90;99.90
53073;DHT22;38955;48.916;2.336;2024-02-26T06:34:31;10.80;99.90
53073;DHT22;38955;48.916;2.336;2024-02-26T06:36:33;10.80;99.90
53073;DHT22;38955;48.916;2.336;2024-02-26T06:38:36;10.80;99.90
53073;DHT22;38955;48.916;2.336;2024-02-26T06:40:39;10.80;99.90
53073;DHT22;38955;48.916;2.336;2024-02-26T06:42:45;10.80;99.90
53073;DHT22;38955;48.916;2.336;2024-02-26T06:44:50;10.80;99.90
53073;DHT22;38955;48.916;2.336;2024-02-26T06:46:53;10.70;99.90
53073;DHT22;38955;48.916;2.336;2024-02-26T06:48:55;10.70;99.90
53073;DHT22;38955;48.916;2.336;2024-02-26T06:50:57;10.60;99.90
53073;DHT22;38955;48.916;2.336;2024-02-26T06:52:59;10.50;99.90
53073;DHT22;38955;48.916;2.336;2024-02-26T06:55:02;10.60;99.90
53073;DHT22;38955;48.916;2.336;2024-02-26T06:57:04;10.60;99.90
53073;DHT22;38955;48.916;2.336;2024-02-26T06:59:08;10.60;99.90
53073;DHT22;38955;48.916;2.336;2024-02-26T07:01:11;10.60;99.90
53073;DHT22;38955;48.916;2.336;2024-02-26T07:03:13;10.60;99.90
53073;DHT22;38955;48.916;2.336;2024-02-26T07:05:16;10.50;99.90
53073;DHT22;38955;48.916;2.336;2024-02-26T07:07:18;10.50;99.90
53073;DHT22;38955;48.916;2.336;2024-02-26T07:09:21;10.50;99.90
53073;DHT22;38955;48.916;2.336;2024-02-26T07:11:23;10.40;99.90
53073;DHT22;38955;48.916;2.336;2024-02-26T07:13:25;10.40;99.90
53073;DHT22;38955;48.916;2.336;2024-02-26T07:15:28;10.40;99.90
53073;DHT22;38955;48.916;2.336;2024-02-26T07:17:30;10.40;99.90
53073;DHT22;38955;48.916;2.336;2024-02-26T07:19:33;10.40;99.90
53073;DHT22;38955;48.916;2.336;2024-02-26T07:21:36;10.40;99.90
53073;DHT22;38955;48.916;2.336;2024-02-26T07:23:38;10.40;99.90
53073;DHT22;38955;48.916;2.336;2024-02-26T07:25:40;10.40;99.90
53073;DHT22;38955;48.916;2.336;2024-02-26T07:27:42;10.40;99.90
53073;DHT22;38955;48.916;2.336;2024-02-26T07:29:44;10.40;99.90
53073;DHT22;38955;48.916;2.336;2024-02-26T07:31:48;10.40;99.90
53073;DHT22;38955;48.916;2.336;2024-02-26T07:33:50;10.40;99.90
53073;DHT22;38955;48.916;2.336;2024-02-26T07:35:53;10.40;99.90
53073;DHT22;38955;48.916;2.336;2024-02-26T07:37:56;10.40;99.90
53073;DHT22;38955;48.916;2.336;2024-02-26T07:39:58;10.50;99.90
53073;DHT22;38955;48.916;2.336;2024-02-26T07:42:00;10.40;99.90
53073;DHT22;38955;48.916;2.336;2024-02-26T07:44:02;10.40;99.90
53073;DHT22;38955;48.916;2.336;2024-02-26T07:46:04;10.40;99.90
53073;DHT22;38955;48.916;2.336;2024-02-26T07:48:08;10.40;99.90
53073;DHT22;38955;48.916;2.336;2024-02-26T07:50:15;10.40;99.90
53073;DHT22;38955;48.916;2.336;2024-02-26T07:52:17;10.40;99.90
53073;DHT22;38955;48.916;2.336;2024-02-26T07:54:19;10.40;99.90
53073;DHT22;38955;48.916;2.336;2024-02-26T07:56:21;10.50;99.90
53073;DHT22;38955;48.916;2.336;2024-02-26T07:58:23;10.50;99.90
53073;DHT22;38955;48.916;2.336;2024-02-26T08:00:25;10.40;99.90
53073;DHT22;38955;48.916;2.336;2024-02-26T08:02:28;10.50;99.90
53073;DHT22;38955;48.916;2.336;2024-02-26T08:04:31;10.50;99.90
53073;DHT22;38955;48.916;2.336;2024-02-26T08:06:33;10.50;99.90
53073;DHT22;38955;48.916;2.336;2024-02-26T08:08:39;10.50;99.90
53073;DHT22;38955;48.916;2.336;2024-02-26T08:10:41;10.50;99.90
53073;DHT22;38955;48.916;2.336;2024-02-26T08:12:43;10.50;99.90
53073;DHT22;38955;48.916;2.336;2024-02-26T08:14:47;10.60;99.90
53073;DHT22;38955;48.916;2.336;2024-02-26T08:16:49;10.60;99.90
53073;DHT22;38955;48.916;2.336;2024-02-26T08:18:51;10.60;99.90
53073;DHT22;38955;48.916;2.336;2024-02-26T08:20:54;10.60;99.90
53073;DHT22;38955;48.916;2.336;2024-02-26T08:22:56;10.60;99.90
53073;DHT22;38955;48.916;2.336;2024-02-26T08:24:59;10.60;99.90
53073;DHT22;38955;48.916;2.336;2024-02-26T08:27:01;10.60;99.90
53073;DHT22;38955;48.916;2.336;2024-02-26T08:29:04;10.70;99.90
53073;DHT22;38955;48.916;2.336;2024-02-26T08:31:07;10.60;99.90
53073;DHT22;38955;48.916;2.336;2024-02-26T08:33:10;10.70;99.90
53073;DHT22;38955;48.916;2.336;2024-02-26T08:35:12;10.70;99.90
53073;DHT22;38955;48.916;2.336;2024-02-26T08:37:16;10.80;99.90
53073;DHT22;38955;48.916;2.336;2024-02-26T08:39:18;10.80;99.90
53073;DHT22;38955;48.916;2.336;2024-02-26T08:41:20;10.70;99.90
53073;DHT22;38955;48.916;2.336;2024-02-26T08:43:22;10.80;99.90
53073;DHT22;38955;48.916;2.336;2024-02-26T08:45:25;10.80;99.90
53073;DHT22;38955;48.916;2.336;2024-02-26T08:47:31;10.80;99.90
53073;DHT22;38955;48.916;2.336;2024-02-26T08:49:34;10.90;99.90
53073;DHT22;38955;48.916;2.336;2024-02-26T08:51:41;10.90;99.90
53073;DHT22;38955;48.916;2.336;2024-02-26T08:53:44;11.00;99.90
53073;DHT22;38955;48.916;2.336;2024-02-26T08:55:46;10.90;99.90
53073;DHT22;38955;48.916;2.336;2024-02-26T08:57:48;10.90;99.90
53073;DHT22;38955;48.916;2.336;2024-02-26T08:59:51;10.80;99.90
53073;DHT22;38955;48.916;2.336;2024-02-26T09:01:53;10.70;99.90
53073;DHT22;38955;48.916;2.336;2024-02-26T09:03:55;10.70;99.90
53073;DHT22;38955;48.916;2.336;2024-02-26T09:05:58;10.70;99.90
53073;DHT22;38955;48.916;2.336;2024-02-26T09:08:01;10.60;99.90
53073;DHT22;38955;48.916;2.336;2024-02-26T09:10:07;10.60;99.90
53073;DHT22;38955;48.916;2.336;2024-02-26T09:12:12;10.60;99.90
53073;DHT22;38955;48.916;2.336;2024-02-26T09:14:14;10.70;99.90
53073;DHT22;38955;48.916;2.336;2024-02-26T09:16:16;10.70;99.90
53073;DHT22;38955;48.916;2.336;2024-02-26T09:18:18;10.70;99.90
53073;DHT22;38955;48.916;2.336;2024-02-26T09:20:21;10.70;99.90
53073;DHT22;38955;48.916;2.336;2024-02-26T09:22:23;10.70;99.90
53073;DHT22;38955;48.916;2.336;2024-02-26T09:24:26;10.70;99.90
53073;DHT22;38955;48.916;2.336;2024-02-26T09:26:30;10.80;99.90
53073;DHT22;38955;48.916;2.336;2024-02-26T09:28:32;10.90;99.90
53073;DHT22;38955;48.916;2.336;2024-02-26T09:30:39;11.00;99.90
53073;DHT22;38955;48.916;2.336;2024-02-26T09:32:41;11.00;99.90
53073;DHT22;38955;48.916;2.336;2024-02-26T09:34:43;11.00;99.90
53073;DHT22;38955;48.916;2.336;2024-02-26T09:36:45;11.10;99.90
53073;DHT22;38955;48.916;2.336;2024-02-26T09:38:47;11.10;99.90
53073;DHT22;38955;48.916;2.336;2024-02-26T09:41:03;11.10;99.90
53073;DHT22;38955;48.916;2.336;2024-02-26T09:43:08;11.10;99.90
53073;DHT22;38955;48.916;2.336;2024-02-26T09:45:18;11.10;99.90
53073;DHT22;38955;48.916;2.336;2024-02-26T09:47:23;11.20;99.90
53073;DHT22;38955;48.916;2.336;2024-02-26T09:49:29;11.20;99.90
53073;DHT22;38955;48.916;2.336;2024-02-26T09:51:31;11.30;99.90
53073;DHT22;38955;48.916;2.336;2024-02-26T09:53:34;11.30;99.90
53073;DHT22;38955;48.916;2.336;2024-02-26T09:55:41;11.30;99.90
53073;DHT22;38955;48.916;2.336;2024-02-26T09:57:45;11.30;99.90
53073;DHT22;38955;48.916;2.336;2024-02-26T09:59:50;11.30;99.90
53073;DHT22;38955;48.916;2.336;2024-02-26T10:01:53;11.30;99.90
53073;DHT22;38955;48.916;2.336;2024-02-26T10:03:56;11.40;99.90
53073;DHT22;38955;48.916;2.336;2024-02-26T10:05:59;11.30;99.90
53073;DHT22;38955;48.916;2.336;2024-02-26T10:08:01;11.40;99.90
53073;DHT22;38955;48.916;2.336;2024-02-26T10:10:04;11.50;99.90
53073;DHT22;38955;48.916;2.336;2024-02-26T10:12:08;11.40;99.90
53073;DHT22;38955;48.916;2.336;2024-02-26T10:14:12;11.50;99.90
53073;DHT22;38955;48.916;2.336;2024-02-26T10:16:16;11.50;99.90
53073;DHT22;38955;48.916;2.336;2024-02-26T10:18:18;11.50;99.90
53073;DHT22;38955;48.916;2.336;2024-02-26T10:20:22;11.60;99.90
53073;DHT22;38955;48.916;2.336;2024-02-26T10:22:27;11.60;99.90
53073;DHT22;38955;48.916;2.336;2024-02-26T10:24:32;11.60;99.90
53073;DHT22;38955;48.916;2.336;2024-02-26T10:26:36;11.50;99.90
53073;DHT22;38955;48.916;2.336;2024-02-26T10:28:39;11.60;99.90
53073;DHT22;38955;48.916;2.336;2024-02-26T10:30:42;11.70;99.90
53073;DHT22;38955;48.916;2.336;2024-02-26T10:32:46;11.70;99.90
53073;DHT22;38955;48.916;2.336;2024-02-26T10:34:55;11.80;99.90
53073;DHT22;38955;48.916;2.336;2024-02-26T10:36:57;11.90;99.90
53073;DHT22;38955;48.916;2.336;2024-02-26T10:39:03;11.90;99.90
53073;DHT22;38955;48.916;2.336;2024-02-26T10:41:06;12.00;99.90
53073;DHT22;38955;48.916;2.336;2024-02-26T10:43:08;11.90;99.90
53073;DHT22;38955;48.916;2.336;2024-02-26T10:45:10;12.00;99.90
53073;DHT22;38955;48.916;2.336;2024-02-26T10:47:12;12.00;99.90
53073;DHT22;38955;48.916;2.336;2024-02-26T10:49:16;12.00;99.90
53073;DHT22;38955;48.916;2.336;2024-02-26T10:51:27;11.90;99.90
53073;DHT22;38955;48.916;2.336;2024-02-26T10:53:31;12.00;99.90
53073;DHT22;38955;48.916;2.336;2024-02-26T10:55:35;12.00;99.90
53073;DHT22;38955;48.916;2.336;2024-02-26T10:57:40;11.90;99.90
53073;DHT22;38955;48.916;2.336;2024-02-26T10:59:43;12.00;99.90
53073;DHT22;38955;48.916;2.336;2024-02-26T11:01:46;12.00;99.90
53073;DHT22;38955;48.916;2.336;2024-02-26T11:03:51;12.00;99.90
53073;DHT22;38955;48.916;2.336;2024-02-26T11:05:55;12.10;99.90
53073;DHT22;38955;48.916;2.336;2024-02-26T11:08:00;12.20;99.90
53073;DHT22;38955;48.916;2.336;2024-02-26T11:10:03;12.20;99.90
53073;DHT22;38955;48.916;2.336;2024-02-26T11:12:06;12.20;99.90
53073;DHT22;38955;48.916;2.336;2024-02-26T11:14:14;12.20;99.90
53073;DHT22;38955;48.916;2.336;2024-02-26T11:16:17;12.20;99.90
53073;DHT22;38955;48.916;2.336;2024-02-26T11:18:21;12.20;99.90
53073;DHT22;38955;48.916;2.336;2024-02-26T11:20:27;11.90;99.90
53073;DHT22;38955;48.916;2.336;2024-02-26T11:22:31;11.60;99.90
53073;DHT22;38955;48.916;2.336;2024-02-26T11:24:34;11.40;99.90
53073;DHT22;38955;48.916;2.336;2024-02-26T11:26:43;11.20;99.90
53073;DHT22;38955;48.916;2.336;2024-02-26T11:28:48;11.00;99.90
53073;DHT22;38955;48.916;2.336;2024-02-26T11:30:51;10.80;99.90
53073;DHT22;38955;48.916;2.336;2024-02-26T11:32:54;10.70;99.90
53073;DHT22;38955;48.916;2.336;2024-02-26T11:34:57;10.60;99.90
53073;DHT22;38955;48.916;2.336;2024-02-26T11:37:09;10.40;99.90
53073;DHT22;38955;48.916;2.336;2024-02-26T11:39:14;10.40;99.90
53073;DHT22;38955;48.916;2.336;2024-02-26T11:41:20;10.30;99.90
53073;DHT22;38955;48.916;2.336;2024-02-26T11:43:23;10.20;99.90
53073;DHT22;38955;48.916;2.336;2024-02-26T11:45:50;10.20;99.90
53073;DHT22;38955;48.916;2.336;2024-02-26T11:47:56;10.10;99.90
53073;DHT22;38955;48.916;2.336;2024-02-26T11:49:58;10.10;99.90
53073;DHT22;38955;48.916;2.336;2024-02-26T11:52:00;10.00;99.90
53073;DHT22;38955;48.916;2.336;2024-02-26T11:54:06;9.90;99.90
53073;DHT22;38955;48.916;2.336;2024-02-26T11:56:24;9.90;99.90
53073;DHT22;38955;48.916;2.336;2024-02-26T11:58:33;9.80;99.90
53073;DHT22;38955;48.916;2.336;2024-02-26T12:00:35;9.90;99.90
53073;DHT22;38955;48.916;2.336;2024-02-26T12:02:46;9.90;99.90
53073;DHT22;38955;48.916;2.336;2024-02-26T12:04:49;9.90;99.90
53073;DHT22;38955;48.916;2.336;2024-02-26T12:06:53;9.90;99.90
53073;DHT22;38955;48.916;2.336;2024-02-26T12:08:57;9.90;99.90
53073;DHT22;38955;48.916;2.336;2024-02-26T12:11:00;9.90;99.90
53073;DHT22;38955;48.916;2.336;2024-02-26T12:13:06;9.80;99.90
53073;DHT22;38955;48.916;2.336;2024-02-26T12:15:09;9.80;99.90
53073;DHT22;38955;48.916;2.336;2024-02-26T12:17:20;9.80;99.90
53073;DHT22;38955;48.916;2.336;2024-02-26T12:19:23;9.80;99.90
53073;DHT22;38955;48.916;2.336;2024-02-26T12:21:26;9.80;99.90
53073;DHT22;38955;48.916;2.336;2024-02-26T12:23:28;9.70;99.90
53073;DHT22;38955;48.916;2.336;2024-02-26T12:25:31;9.70;99.90
53073;DHT22;38955;48.916;2.336;2024-02-26T12:27:33;9.70;99.90
53073;DHT22;38955;48.916;2.336;2024-02-26T12:29:37;9.70;99.90
53073;DHT22;38955;48.916;2.336;2024-02-26T12:31:39;9.60;99.90
53073;DHT22;38955;48.916;2.336;2024-02-26T12:33:42;9.50;99.90
53073;DHT22;38955;48.916;2.336;2024-02-26T12:35:45;9.50;99.90
53073;DHT22;38955;48.916;2.336;2024-02-26T12:37:50;9.50;99.90
53073;DHT22;38955;48.916;2.336;2024-02-26T12:39:53;9.50;99.90
53073;DHT22;38955;48.916;2.336;2024-02-26T12:41:57;9.50;99.90
53073;DHT22;38955;48.916;2.336;2024-02-26T12:44:01;9.50;99.90
53073;DHT22;38955;48.916;2.336;2024-02-26T12:46:05;9.50;99.90
53073;DHT22;38955;48.916;2.336;2024-02-26T12:48:09;9.40;99.90
53073;DHT22;38955;48.916;2.336;2024-02-26T12:50:12;9.50;99.90
53073;DHT22;38955;48.916;2.336;2024-02-26T12:52:14;9.50;99.90
53073;DHT22;38955;48.916;2.336;2024-02-26T12:54:16;9.50;99.90
53073;DHT22;38955;48.916;2.336;2024-02-26T12:56:19;9.40;99.90
53073;DHT22;38955;48.916;2.336;2024-02-26T12:58:21;9.40;99.90
53073;DHT22;38955;48.916;2.336;2024-02-26T13:00:27;9.30;99.90